Time;durP1;ratioP1;P1;durP2;ratioP2;P2;SDS_P1;SDS_P2;PMS_P1;PMS_P2;Temp;Humidity;BMP_temperature;BMP_pressure;BME280_temperature;BME280_humidity;BME280_pressure;Samples;Min_cycle;Max_cycle;Signal;HPM_P1;HPM_P2
2022/03/14 00:01:12;;;;;;;72.05;26.65;;;;;;;;;;5080028;28;20414;-83
2022/03/14 00:03:58;;;;;;;73.30;27.92;;;;;;;;;;5079185;28;20023;-83
2022/03/14 00:06:23;;;;;;;80.93;27.23;;;;;;;;;;5095831;28;20038;-83
2022/03/14 00:08:50;;;;;;;59.05;21.83;;;;;;;;;;5079358;28;20027;-84
2022/03/14 00:11:16;;;;;;;60.47;22.73;;;;;;;;;;5079470;28;20032;-84
2022/03/14 00:13:46;;;;;;;54.10;20.85;;;;;;;;;;5079191;28;20365;-82
2022/03/14 00:16:24;;;;;;;54.30;21.17;;;;;;;;;;5079430;28;20028;-83
2022/03/14 00:18:53;;;;;;;77.93;24.52;;;;;;;;;;5089027;28;20034;-82
2022/03/14 00:21:22;;;;;;;50.03;19.90;;;;;;;;;;5086754;28;20128;-83
2022/03/14 00:23:48;;;;;;;68.15;25.00;;;;;;;;;;5082930;28;20023;-83
2022/03/14 00:26:14;;;;;;;68.32;25.63;;;;;;;;;;5082820;28;20065;-83
2022/03/14 00:28:39;;;;;;;66.13;26.73;;;;;;;;;;5117709;28;20495;-83
2022/03/14 00:31:05;;;;;;;72.47;27.80;;;;;;;;;;5082519;28;20031;-83
2022/03/14 00:33:31;;;;;;;73.10;27.73;;;;;;;;;;5065912;28;20034;-82
2022/03/14 00:35:57;;;;;;;76.85;28.33;;;;;;;;;;5117489;28;20110;-82
2022/03/14 00:38:24;;;;;;;64.03;23.88;;;;;;;;;;5082940;28;20367;-82
2022/03/14 00:40:50;;;;;;;62.10;23.35;;;;;;;;;;5087321;28;20048;-82
2022/03/14 00:43:16;;;;;;;64.57;24.40;;;;;;;;;;5090758;28;20386;-82
2022/03/14 00:45:41;;;;;;;66.10;25.52;;;;;;;;;;5082557;28;20027;-82
2022/03/14 00:48:07;;;;;;;60.95;24.17;;;;;;;;;;5099541;28;20030;-82
2022/03/14 00:50:33;;;;;;;56.40;20.75;;;;;;;;;;5081560;28;20018;-82
2022/03/14 00:52:58;;;;;;;53.22;20.67;;;;;;;;;;5087199;28;20015;-82
2022/03/14 00:55:24;;;;;;;50.20;20.95;;;;;;;;;;5117398;28;20059;-82
2022/03/14 00:57:49;;;;;;;45.15;17.88;;;;;;;;;;5117123;28;20415;-82
2022/03/14 01:00:15;;;;;;;48.85;17.63;;;;;;;;;;5098841;28;20346;-82
2022/03/14 01:02:40;;;;;;;43.58;17.20;;;;;;;;;;5117300;28;20069;-82
2022/03/14 01:05:06;;;;;;;49.25;18.55;;;;;;;;;;5075394;28;20093;-82
2022/03/14 01:07:34;;;;;;;41.63;16.63;;;;;;;;;;5098549;28;20396;-82
2022/03/14 01:10:01;;;;;;;40.75;17.23;;;;;;;;;;5066154;28;20418;-82
2022/03/14 01:12:26;;;;;;;45.45;17.90;;;;;;;;;;5098740;28;20053;-82
2022/03/14 01:14:52;;;;;;;60.03;21.50;;;;;;;;;;5098394;28;20469;-83
2022/03/14 01:17:18;;;;;;;52.80;19.45;;;;;;;;;;5081613;28;20027;-82
2022/03/14 01:19:44;;;;;;;50.60;20.55;;;;;;;;;;5098611;28;20431;-82
2022/03/14 01:22:12;;;;;;;49.85;18.67;;;;;;;;;;5098616;28;20039;-82
2022/03/14 01:24:42;;;;;;;45.88;17.95;;;;;;;;;;5099066;28;20038;-82
2022/03/14 01:27:07;;;;;;;47.72;18.60;;;;;;;;;;5118090;28;20092;-83
2022/03/14 01:29:34;;;;;;;43.90;19.08;;;;;;;;;;5081261;28;20035;-82
2022/03/14 01:32:01;;;;;;;42.47;17.00;;;;;;;;;;5081228;28;20027;-84
2022/03/14 01:34:26;;;;;;;43.47;18.52;;;;;;;;;;5098402;28;20110;-83
2022/03/14 01:36:52;;;;;;;47.08;18.08;;;;;;;;;;5116823;28;20066;-82
2022/03/14 01:39:18;;;;;;;46.92;17.05;;;;;;;;;;5101716;28;20098;-82
2022/03/14 01:41:43;;;;;;;45.50;18.77;;;;;;;;;;5115533;28;20027;-81
2022/03/14 01:44:09;;;;;;;42.20;17.38;;;;;;;;;;5115206;28;20030;-81
2022/03/14 01:46:35;;;;;;;48.65;17.85;;;;;;;;;;5132101;28;20352;-82
2022/03/14 01:49:00;;;;;;;58.60;22.83;;;;;;;;;;5077152;28;20031;-82
2022/03/14 01:51:26;;;;;;;65.03;25.13;;;;;;;;;;5097968;28;20049;-82
2022/03/14 01:53:52;;;;;;;61.20;23.33;;;;;;;;;;5081285;28;20027;-82
2022/03/14 01:56:18;;;;;;;68.15;23.50;;;;;;;;;;5064736;28;20395;-82
2022/03/14 01:58:43;;;;;;;62.58;23.70;;;;;;;;;;5064448;28;20023;-81
2022/03/14 02:01:09;;;;;;;59.67;20.70;;;;;;;;;;5080958;28;20031;-82
2022/03/14 02:03:34;;;;;;;52.78;19.80;;;;;;;;;;5097765;28;20027;-82
2022/03/14 02:06:00;;;;;;;54.40;20.50;;;;;;;;;;5080657;28;20031;-82
2022/03/14 02:08:25;;;;;;;53.60;19.75;;;;;;;;;;5081279;28;20172;-82
2022/03/14 02:10:51;;;;;;;50.10;18.63;;;;;;;;;;5109633;28;20087;-82
2022/03/14 02:13:16;;;;;;;46.22;17.45;;;;;;;;;;5080618;28;20365;-82
2022/03/14 02:15:42;;;;;;;44.00;16.65;;;;;;;;;;5080599;28;20111;-82
2022/03/14 02:18:08;;;;;;;47.90;18.90;;;;;;;;;;5080545;28;20039;-82
2022/03/14 02:20:34;;;;;;;49.30;19.30;;;;;;;;;;5115456;28;20032;-82
2022/03/14 02:22:59;;;;;;;47.58;18.25;;;;;;;;;;5080468;28;20031;-82
2022/03/14 02:25:25;;;;;;;43.72;18.73;;;;;;;;;;5097115;28;20046;-81
2022/03/14 02:27:50;;;;;;;40.25;17.00;;;;;;;;;;5063586;28;20028;-82
2022/03/14 02:30:18;;;;;;;40.30;16.50;;;;;;;;;;5096917;28;20369;-82
2022/03/14 02:32:43;;;;;;;43.53;16.85;;;;;;;;;;5070038;28;20095;-82
2022/03/14 02:35:09;;;;;;;44.35;17.85;;;;;;;;;;5063777;28;20504;-83
2022/03/14 02:37:35;;;;;;;38.05;16.40;;;;;;;;;;5080289;28;20050;-83
2022/03/14 02:40:00;;;;;;;39.90;17.15;;;;;;;;;;5097182;28;20031;-82
2022/03/14 02:42:26;;;;;;;42.22;17.55;;;;;;;;;;5097140;28;20034;-83
2022/03/14 02:44:51;;;;;;;38.80;16.15;;;;;;;;;;5095929;28;20034;-82
2022/03/14 02:47:17;;;;;;;41.72;16.55;;;;;;;;;;5080037;28;20100;-83
2022/03/14 02:49:42;;;;;;;45.95;19.27;;;;;;;;;;5081208;28;20039;-84
2022/03/14 02:52:08;;;;;;;40.45;16.83;;;;;;;;;;5101700;28;20027;-82
2022/03/14 02:54:33;;;;;;;37.70;16.00;;;;;;;;;;5115427;28;20054;-81
2022/03/14 02:56:59;;;;;;;36.83;16.83;;;;;;;;;;5097852;28;20028;-82
2022/03/14 02:59:25;;;;;;;40.88;16.33;;;;;;;;;;5093218;28;20036;-82
2022/03/14 03:01:50;;;;;;;41.05;16.25;;;;;;;;;;5089085;28;20349;-82
2022/03/14 03:04:16;;;;;;;38.15;15.45;;;;;;;;;;5085499;28;20030;-82
2022/03/14 03:06:42;;;;;;;49.35;18.83;;;;;;;;;;5080302;28;20031;-82
2022/03/14 03:09:08;;;;;;;46.28;17.02;;;;;;;;;;5080026;28;20035;-82
2022/03/14 03:11:34;;;;;;;42.13;17.95;;;;;;;;;;5079884;28;20035;-83
2022/03/14 03:14:00;;;;;;;51.92;17.95;;;;;;;;;;5062753;28;20081;-82
2022/03/14 03:16:26;;;;;;;51.35;20.80;;;;;;;;;;5089043;28;20451;-82
2022/03/14 03:18:51;;;;;;;44.13;17.83;;;;;;;;;;5063916;28;20031;-82
2022/03/14 03:21:17;;;;;;;52.85;18.38;;;;;;;;;;5096618;28;20023;-83
2022/03/14 03:23:43;;;;;;;45.40;18.27;;;;;;;;;;5114691;28;20338;-84
2022/03/14 03:26:08;;;;;;;50.97;19.92;;;;;;;;;;5062713;28;20028;-83
2022/03/14 03:28:37;;;;;;;52.13;21.35;;;;;;;;;;5063049;28;20039;-82
2022/03/14 03:31:09;;;;;;;51.35;21.02;;;;;;;;;;5080561;28;20061;-83
2022/03/14 03:33:35;;;;;;;51.88;20.60;;;;;;;;;;5079897;28;20024;-82
2022/03/14 03:36:00;;;;;;;52.75;20.45;;;;;;;;;;5079650;28;20043;-82
2022/03/14 03:38:27;;;;;;;57.80;23.45;;;;;;;;;;5088342;28;20031;-82
2022/03/14 03:40:53;;;;;;;55.28;21.67;;;;;;;;;;5079624;28;20031;-83
2022/03/14 03:43:18;;;;;;;56.03;23.65;;;;;;;;;;5062667;28;20069;-82
2022/03/14 03:45:44;;;;;;;60.03;23.25;;;;;;;;;;5062872;28;20038;-83
2022/03/14 03:48:09;;;;;;;61.13;25.45;;;;;;;;;;5079738;28;20349;-82
2022/03/14 03:50:35;;;;;;;56.67;23.30;;;;;;;;;;5079201;28;20117;-82
2022/03/14 03:53:00;;;;;;;54.15;23.33;;;;;;;;;;5075468;28;20034;-82
2022/03/14 03:55:26;;;;;;;59.70;25.77;;;;;;;;;;5092423;28;20057;-82
2022/03/14 03:57:51;;;;;;;55.00;23.30;;;;;;;;;;5119776;28;20460;-84
2022/03/14 04:00:19;;;;;;;50.78;21.90;;;;;;;;;;5092246;28;20034;-83
2022/03/14 04:02:45;;;;;;;60.78;22.98;;;;;;;;;;5100143;28;20044;-84
2022/03/14 04:05:16;;;;;;;57.72;23.88;;;;;;;;;;5100400;28;20061;-84
2022/03/14 04:07:43;;;;;;;49.08;20.98;;;;;;;;;;5101314;28;20027;-84
2022/03/14 04:10:13;;;;;;;54.10;22.90;;;;;;;;;;5104168;28;20023;-83
2022/03/14 04:12:39;;;;;;;54.38;23.13;;;;;;;;;;5103443;28;20020;-84
2022/03/14 04:15:09;;;;;;;52.20;23.27;;;;;;;;;;5089179;28;20032;-83
2022/03/14 04:17:38;;;;;;;62.72;25.25;;;;;;;;;;5100139;28;20119;-83
2022/03/14 04:20:05;;;;;;;59.40;24.02;;;;;;;;;;5099876;28;20024;-84
2022/03/14 04:22:31;;;;;;;56.55;24.77;;;;;;;;;;5107617;28;20035;-84
2022/03/14 04:24:57;;;;;;;62.03;23.23;;;;;;;;;;5082969;28;20024;-84
2022/03/14 04:27:23;;;;;;;56.83;23.67;;;;;;;;;;5082901;28;20027;-84
2022/03/14 04:29:49;;;;;;;56.90;24.40;;;;;;;;;;5082813;28;20077;-84
2022/03/14 04:32:14;;;;;;;57.20;23.95;;;;;;;;;;5118751;28;20027;-84
2022/03/14 04:34:40;;;;;;;60.75;24.95;;;;;;;;;;5099484;28;20024;-84
2022/03/14 04:37:07;;;;;;;58.03;23.52;;;;;;;;;;5082555;28;20059;-83
2022/03/14 04:39:33;;;;;;;57.78;25.40;;;;;;;;;;5099810;28;20054;-84
2022/03/14 04:41:59;;;;;;;61.30;25.83;;;;;;;;;;5066207;28;20493;-85
2022/03/14 04:44:24;;;;;;;54.78;25.17;;;;;;;;;;5097914;28;20028;-84
2022/03/14 04:46:50;;;;;;;61.05;26.20;;;;;;;;;;5082507;28;20090;-84
2022/03/14 04:49:15;;;;;;;71.20;27.75;;;;;;;;;;5082725;28;20035;-84
2022/03/14 04:51:42;;;;;;;71.60;27.05;;;;;;;;;;5066013;28;20130;-84
2022/03/14 04:54:08;;;;;;;74.70;29.13;;;;;;;;;;5099634;28;20030;-83
2022/03/14 04:56:34;;;;;;;72.97;29.15;;;;;;;;;;5082157;28;20150;-84
2022/03/14 04:59:01;;;;;;;67.15;27.65;;;;;;;;;;5065461;28;20479;-84
2022/03/14 05:01:26;;;;;;;74.30;30.55;;;;;;;;;;5082682;28;20430;-84
2022/03/14 05:03:52;;;;;;;78.18;30.95;;;;;;;;;;5082561;28;20081;-84
2022/03/14 05:06:18;;;;;;;72.45;29.92;;;;;;;;;;5096211;28;20012;-85
2022/03/14 05:08:44;;;;;;;75.78;30.73;;;;;;;;;;5099178;28;20023;-84
2022/03/14 05:11:11;;;;;;;86.65;31.83;;;;;;;;;;5064990;28;20345;-81
2022/03/14 05:13:36;;;;;;;93.32;34.95;;;;;;;;;;5098876;28;20048;-80
2022/03/14 05:16:02;;;;;;;117.53;44.95;;;;;;;;;;5098708;28;20046;-80
2022/03/14 05:18:28;;;;;;;117.47;44.03;;;;;;;;;;5116666;28;20034;-81
2022/03/14 05:20:54;;;;;;;113.00;41.47;;;;;;;;;;5102089;28;20028;-87
2022/03/14 05:23:23;;;;;;;102.72;41.10;;;;;;;;;;5083923;28;20024;-85
2022/03/14 05:25:48;;;;;;;88.40;31.75;;;;;;;;;;5098941;28;20440;-86
2022/03/14 05:28:15;;;;;;;74.22;29.38;;;;;;;;;;5095501;28;20087;-86
2022/03/14 05:30:41;;;;;;;70.85;26.80;;;;;;;;;;5111343;28;20333;-86
2022/03/14 05:33:09;;;;;;;60.45;24.92;;;;;;;;;;5070551;28;20034;-86
2022/03/14 05:35:37;;;;;;;55.30;22.80;;;;;;;;;;5089035;28;20117;-85
2022/03/14 05:38:03;;;;;;;59.65;22.83;;;;;;;;;;5100749;28;20032;-86
2022/03/14 05:47:11;;;;;;;;;;;;;;;;;;5041709;28;20044;-86
2022/03/14 05:50:15;;;;;;;72.82;28.35;;;;;;;;;;5107137;28;19965;-84
2022/03/14 05:58:51;;;;;;;85.22;31.08;;;;;;;;;;4441693;26;20228;-85
2022/03/14 06:01:23;;;;;;;66.65;26.15;;;;;;;;;;5100190;22;20035;-85
2022/03/14 06:04:00;;;;;;;78.30;28.48;;;;;;;;;;5075308;28;20060;-85
2022/03/14 06:06:26;;;;;;;75.53;28.40;;;;;;;;;;5044130;28;20030;-86
2022/03/14 06:13:06;;;;;;;102.82;38.53;;;;;;;;;;4985736;28;20042;-84
2022/03/14 06:15:41;;;;;;;90.35;40.25;;;;;;;;;;5035303;22;20052;-84
2022/03/14 06:18:51;;;;;;;78.25;32.38;;;;;;;;;;5069000;28;20456;-82
2022/03/14 06:21:20;;;;;;;110.43;44.43;;;;;;;;;;5063300;28;20107;-86
2022/03/14 06:24:35;;;;;;;106.18;41.08;;;;;;;;;;5045975;28;20043;-83
2022/03/14 06:27:02;;;;;;;88.25;32.15;;;;;;;;;;4979194;28;20042;-86
2022/03/14 06:29:27;;;;;;;95.15;40.83;;;;;;;;;;5053185;28;20031;-82
2022/03/14 06:32:05;;;;;;;70.72;29.83;;;;;;;;;;5088350;28;20201;-84
2022/03/14 06:34:33;;;;;;;84.35;31.58;;;;;;;;;;5066718;28;20031;-85
2022/03/14 06:37:08;;;;;;;66.60;26.55;;;;;;;;;;5066866;28;20034;-84
2022/03/14 06:39:54;;;;;;;62.70;26.95;;;;;;;;;;5061518;28;20316;-86
2022/03/14 06:42:20;;;;;;;69.05;29.45;;;;;;;;;;5041069;28;20044;-81
2022/03/14 06:44:49;;;;;;;64.72;27.85;;;;;;;;;;5055666;28;20041;-79
2022/03/14 06:47:17;;;;;;;54.35;24.60;;;;;;;;;;5052654;28;20086;-81
2022/03/14 06:49:44;;;;;;;59.50;24.92;;;;;;;;;;5048460;28;20029;-82
2022/03/14 06:52:10;;;;;;;66.82;28.35;;;;;;;;;;5054579;28;20033;-85
2022/03/14 06:54:36;;;;;;;55.95;24.98;;;;;;;;;;5054259;28;20037;-83
2022/03/14 06:57:02;;;;;;;62.50;26.75;;;;;;;;;;5035624;28;20156;-84
2022/03/14 06:59:30;;;;;;;70.97;29.65;;;;;;;;;;5014987;28;20083;-84
2022/03/14 07:01:59;;;;;;;89.72;36.78;;;;;;;;;;5020516;28;20470;-85
2022/03/14 07:04:24;;;;;;;81.38;34.97;;;;;;;;;;5032527;28;20069;-82
2022/03/14 07:06:50;;;;;;;91.68;37.85;;;;;;;;;;5045410;28;19921;-85
2022/03/14 07:09:20;;;;;;;84.00;34.95;;;;;;;;;;5042895;22;20041;-87
2022/03/14 07:11:51;;;;;;;94.95;38.33;;;;;;;;;;5043568;28;20049;-86
2022/03/14 07:14:21;;;;;;;94.35;39.85;;;;;;;;;;5048440;28;20025;-90
2022/03/14 07:16:49;;;;;;;112.10;41.40;;;;;;;;;;5034935;28;20043;-89
2022/03/14 07:19:18;;;;;;;90.18;40.20;;;;;;;;;;5047980;28;20049;-89
2022/03/14 07:21:44;;;;;;;112.05;45.88;;;;;;;;;;5026825;28;20096;-84
2022/03/14 07:24:09;;;;;;;107.50;49.95;;;;;;;;;;5057463;28;20060;-85
2022/03/14 07:26:35;;;;;;;124.38;44.35;;;;;;;;;;5059513;28;20040;-82
2022/03/14 07:29:01;;;;;;;125.25;43.50;;;;;;;;;;5059054;28;20036;-81
2022/03/14 07:31:35;;;;;;;100.60;39.85;;;;;;;;;;5059625;28;20032;-85
2022/03/14 07:34:01;;;;;;;79.25;37.13;;;;;;;;;;5056175;28;20906;-82
2022/03/14 07:36:34;;;;;;;78.40;36.83;;;;;;;;;;5060739;28;20020;-82
2022/03/14 07:39:04;;;;;;;95.38;41.47;;;;;;;;;;5057273;28;20044;-83
2022/03/14 07:41:29;;;;;;;93.20;40.67;;;;;;;;;;5062352;28;20035;-86
2022/03/14 07:43:55;;;;;;;73.30;34.13;;;;;;;;;;5027828;28;20049;-85
2022/03/14 07:46:21;;;;;;;74.28;34.17;;;;;;;;;;5050847;28;20051;-84
2022/03/14 07:48:56;;;;;;;70.50;34.67;;;;;;;;;;5061845;28;20456;-88
2022/03/14 07:51:21;;;;;;;79.05;34.78;;;;;;;;;;5059160;28;20047;-87
2022/03/14 07:53:50;;;;;;;69.05;34.70;;;;;;;;;;5082597;28;20077;-86
2022/03/14 07:56:16;;;;;;;63.00;30.42;;;;;;;;;;5171281;22;20062;-81
2022/03/14 07:58:42;;;;;;;69.35;32.05;;;;;;;;;;5042841;28;20051;-81
2022/03/14 08:01:17;;;;;;;95.28;38.38;;;;;;;;;;5074679;28;20024;-85
2022/03/14 08:03:43;;;;;;;104.20;38.30;;;;;;;;;;5056663;28;20662;-84
2022/03/14 08:06:11;;;;;;;77.32;35.58;;;;;;;;;;5082800;28;20070;-81
2022/03/14 08:08:36;;;;;;;77.78;35.38;;;;;;;;;;5079267;28;20028;-83
2022/03/14 08:11:04;;;;;;;62.38;32.22;;;;;;;;;;5068798;28;20043;-87
2022/03/14 08:13:30;;;;;;;57.45;29.48;;;;;;;;;;5057514;28;20036;-84
2022/03/14 08:15:56;;;;;;;75.85;35.83;;;;;;;;;;5059229;28;20580;-84
2022/03/14 08:18:22;;;;;;;59.55;28.75;;;;;;;;;;5083122;28;20058;-82
2022/03/14 08:21:11;;;;;;;55.05;29.58;;;;;;;;;;5088816;28;20044;-83
2022/03/14 08:23:50;;;;;;;60.67;31.70;;;;;;;;;;5091535;28;20052;-83
2022/03/14 08:26:42;;;;;;;;;;;;;;;;;;;;;
2022/03/14 08:29:08;;;;;;;63.67;31.17;;;;;;;;;;5053453;28;20059;-85
2022/03/14 08:31:57;;;;;;;60.25;31.67;;;;;;;;;;5077304;28;20584;-83
2022/03/14 08:34:23;;;;;;;55.95;30.38;;;;;;;;;;5078297;28;20477;-86
2022/03/14 08:36:52;;;;;;;70.68;33.70;;;;;;;;;;5046406;28;20032;-85
2022/03/14 08:46:04;;;;;;;59.88;30.25;;;;;;;;;;5158794;22;20120;-85
2022/03/14 08:48:31;;;;;;;65.20;30.70;;;;;;;;;;5081691;28;20088;-84
2022/03/14 08:51:01;;;;;;;50.95;27.50;;;;;;;;;;5083898;28;20066;-78
2022/03/14 08:53:46;;;;;;;50.67;27.88;;;;;;;;;;5085584;28;20035;-85
2022/03/14 08:56:29;;;;;;;60.90;27.73;;;;;;;;;;5083023;28;20050;-82
2022/03/14 08:59:12;;;;;;;55.30;28.13;;;;;;;;;;5081235;28;20440;-86
2022/03/14 09:04:31;;;;;;;55.33;28.52;;;;;;;;;;5109977;22;20055;-83
2022/03/14 09:07:43;;;;;;;54.15;27.92;;;;;;;;;;5081859;28;20047;-83
2022/03/14 09:10:11;;;;;;;54.15;25.67;;;;;;;;;;5074622;28;20574;-85
2022/03/14 09:12:42;;;;;;;57.22;27.63;;;;;;;;;;5114945;28;20044;-83
2022/03/14 09:15:07;;;;;;;;;;;;;;;;;;5100009;28;20028;-83
2022/03/14 09:17:34;;;;;;;62.85;30.05;;;;;;;;;;5112852;28;19934;-79
2022/03/14 09:20:05;;;;;;;56.97;28.77;;;;;;;;;;5116495;28;20696;-80
2022/03/14 09:22:31;;;;;;;64.00;32.15;;;;;;;;;;5107851;28;20030;-79
2022/03/14 09:24:57;;;;;;;77.57;32.88;;;;;;;;;;5062273;28;20118;-79
2022/03/14 09:27:23;;;;;;;94.65;32.92;;;;;;;;;;5084763;28;20020;-85
2022/03/14 09:29:50;;;;;;;67.40;29.08;;;;;;;;;;5083073;28;20035;-84
2022/03/14 09:32:16;;;;;;;76.85;29.55;;;;;;;;;;5084395;28;20028;-87
2022/03/14 09:34:45;;;;;;;60.85;26.38;;;;;;;;;;5080300;28;20049;-83
2022/03/14 09:37:11;;;;;;;61.47;28.58;;;;;;;;;;5090989;28;20170;-80
2022/03/14 09:39:37;;;;;;;58.60;25.98;;;;;;;;;;5094628;28;20156;-80
2022/03/14 09:42:04;;;;;;;60.67;29.60;;;;;;;;;;5093774;28;20093;-79
2022/03/14 09:44:40;;;;;;;65.03;28.75;;;;;;;;;;5078672;28;20016;-84
2022/03/14 09:47:07;;;;;;;62.50;27.83;;;;;;;;;;5057094;28;20012;-88
2022/03/14 09:49:33;;;;;;;57.35;26.10;;;;;;;;;;5064615;28;20050;-86
2022/03/14 09:52:14;;;;;;;55.03;24.30;;;;;;;;;;5088585;28;20028;-85
2022/03/14 09:54:56;;;;;;;54.40;25.55;;;;;;;;;;5081572;23;20070;-85
2022/03/14 09:57:24;;;;;;;54.00;24.88;;;;;;;;;;5104473;28;20036;-82
2022/03/14 09:59:50;;;;;;;53.83;24.33;;;;;;;;;;5097161;28;20059;-84
2022/03/14 10:02:19;;;;;;;52.55;24.27;;;;;;;;;;5096557;28;20027;-89
2022/03/14 10:04:45;;;;;;;55.60;25.20;;;;;;;;;;5055949;28;20024;-85
2022/03/14 10:07:11;;;;;;;58.70;24.23;;;;;;;;;;5052968;28;20032;-83
2022/03/14 10:09:37;;;;;;;56.83;26.42;;;;;;;;;;5070476;28;20587;-85
2022/03/14 10:12:04;;;;;;;59.15;26.40;;;;;;;;;;5133799;22;20051;-85
2022/03/14 10:14:34;;;;;;;55.03;25.52;;;;;;;;;;5087068;28;20101;-84
2022/03/14 10:20:33;;;;;;;63.28;26.88;;;;;;;;;;5018985;28;20041;-81
2022/03/14 10:23:00;;;;;;;69.50;28.38;;;;;;;;;;5056801;28;20497;-79
2022/03/14 10:25:34;;;;;;;55.78;25.88;;;;;;;;;;5086961;28;20364;-83
2022/03/14 10:28:01;;;;;;;68.30;29.17;;;;;;;;;;5110695;28;20028;-80
2022/03/14 10:30:33;;;;;;;67.22;28.75;;;;;;;;;;5083119;28;20085;-82
2022/03/14 10:33:16;;;;;;;51.50;22.33;;;;;;;;;;5095223;28;20080;-79
2022/03/14 10:41:07;;;;;;;53.65;23.17;;;;;;;;;;5093165;28;20060;-84
2022/03/14 10:43:35;;;;;;;57.42;24.67;;;;;;;;;;5081186;28;20050;-82
2022/03/14 10:46:04;;;;;;;54.95;23.70;;;;;;;;;;5095388;28;20614;-84
2022/03/14 10:48:35;;;;;;;51.45;25.10;;;;;;;;;;5044918;28;20036;-84
2022/03/14 10:51:37;;;;;;;60.38;28.38;;;;;;;;;;5078208;28;20078;-82
2022/03/14 10:54:38;;;;;;;58.60;28.33;;;;;;;;;;5066359;28;20130;-82
2022/03/14 10:57:03;;;;;;;;;;;;;;;;;;5093163;28;20040;-78
2022/03/14 10:59:42;;;;;;;51.92;23.48;;;;;;;;;;5073520;28;19919;-82
2022/03/14 11:02:43;;;;;;;49.47;23.45;;;;;;;;;;5082625;28;20110;-83
2022/03/14 11:05:09;;;;;;;47.47;22.80;;;;;;;;;;5099589;28;20044;-83
2022/03/14 11:07:43;;;;;;;45.47;20.83;;;;;;;;;;5060480;28;20073;-80
2022/03/14 11:10:51;;;;;;;48.65;21.75;;;;;;;;;;5049720;28;20044;-85
2022/03/14 11:13:20;;;;;;;49.90;21.67;;;;;;;;;;5074031;28;20045;-84
2022/03/14 11:15:46;;;;;;;44.92;20.05;;;;;;;;;;5052470;28;20330;-82
2022/03/14 11:18:12;;;;;;;37.42;18.35;;;;;;;;;;5065297;28;20055;-83
2022/03/14 11:20:37;;;;;;;53.67;24.65;;;;;;;;;;5081552;28;20051;-81
2022/03/14 11:25:34;;;;;;;44.67;20.92;;;;;;;;;;5114494;22;20039;-82
2022/03/14 11:28:00;;;;;;;45.47;21.80;;;;;;;;;;5078580;28;20228;-83
2022/03/14 11:30:26;;;;;;;43.55;19.88;;;;;;;;;;5102597;28;20019;-83
2022/03/14 11:34:02;;;;;;;38.92;19.13;;;;;;;;;;5095191;28;20031;-84
2022/03/14 11:36:42;;;;;;;44.63;18.50;;;;;;;;;;5070460;22;20052;-83
2022/03/14 11:39:07;;;;;;;42.88;19.33;;;;;;;;;;5059647;28;20029;-82
2022/03/14 11:41:42;;;;;;;48.90;22.45;;;;;;;;;;5053526;28;20043;-82
2022/03/14 11:44:08;;;;;;;52.90;22.77;;;;;;;;;;5049112;28;20106;-82
2022/03/14 11:46:44;;;;;;;48.80;23.52;;;;;;;;;;5048791;28;20442;-85
2022/03/14 11:49:21;;;;;;;45.60;19.38;;;;;;;;;;5043848;28;20036;-85
2022/03/14 11:51:47;;;;;;;41.42;19.33;;;;;;;;;;5038539;28;20114;-80
2022/03/14 11:54:13;;;;;;;45.33;19.77;;;;;;;;;;5053086;28;20449;-81
2022/03/14 11:56:55;;;;;;;42.80;19.30;;;;;;;;;;5054207;28;20068;-79
2022/03/14 11:59:27;;;;;;;39.28;18.73;;;;;;;;;;5043329;28;20059;-79
2022/03/14 12:01:55;;;;;;;46.45;19.75;;;;;;;;;;5079439;28;20032;-82
2022/03/14 12:04:31;;;;;;;40.33;16.67;;;;;;;;;;5051182;28;20226;-81
2022/03/14 12:07:00;;;;;;;36.17;16.90;;;;;;;;;;5078401;28;20031;-84
2022/03/14 12:09:26;;;;;;;41.95;17.92;;;;;;;;;;5060268;28;20024;-82
2022/03/14 12:11:52;;;;;;;34.90;17.75;;;;;;;;;;5052585;28;20028;-84
2022/03/14 12:15:08;;;;;;;42.67;18.90;;;;;;;;;;5056794;28;20045;-86
2022/03/14 12:17:34;;;;;;;87.65;26.52;;;;;;;;;;5059408;28;20027;-80
2022/03/14 12:20:12;;;;;;;44.65;19.20;;;;;;;;;;5044733;28;20016;-82
2022/03/14 12:22:44;;;;;;;41.03;18.80;;;;;;;;;;5062382;28;20365;-82
2022/03/14 12:25:41;;;;;;;42.22;19.52;;;;;;;;;;5027430;28;20024;-82
2022/03/14 12:28:28;;;;;;;48.70;20.20;;;;;;;;;;5075741;28;20031;-81
2022/03/14 12:30:58;;;;;;;60.90;24.63;;;;;;;;;;5098075;28;20054;-87
2022/03/14 12:33:34;;;;;;;47.63;18.42;;;;;;;;;;5098105;28;20027;-83
2022/03/14 12:36:22;;;;;;;40.35;20.23;;;;;;;;;;5093118;28;20032;-82
2022/03/14 12:39:09;;;;;;;43.17;19.13;;;;;;;;;;5083054;28;20039;-83
2022/03/14 12:41:38;;;;;;;46.08;19.10;;;;;;;;;;5103024;28;20067;-83
2022/03/14 12:44:24;;;;;;;42.00;17.33;;;;;;;;;;5094715;28;20430;-82
2022/03/14 12:46:51;;;;;;;41.28;18.42;;;;;;;;;;5060980;28;20039;-83
2022/03/14 12:49:45;;;;;;;43.25;18.35;;;;;;;;;;5060706;28;20448;-84
2022/03/14 12:52:12;;;;;;;38.90;17.10;;;;;;;;;;5087937;28;20036;-82
2022/03/14 12:54:38;;;;;;;38.03;17.35;;;;;;;;;;5076263;28;20683;-83
2022/03/14 12:57:27;;;;;;;36.28;15.20;;;;;;;;;;5067124;28;20024;-87
2022/03/14 12:59:58;;;;;;;42.33;18.40;;;;;;;;;;5089125;28;20036;-89
2022/03/14 13:02:25;;;;;;;37.38;16.75;;;;;;;;;;5100575;28;20039;-85
2022/03/14 13:04:58;;;;;;;40.08;16.30;;;;;;;;;;5061737;28;20372;-80
2022/03/14 13:07:24;;;;;;;35.70;16.58;;;;;;;;;;5097071;28;20149;-88
2022/03/14 13:09:51;;;;;;;44.70;19.20;;;;;;;;;;5099983;28;20051;-86
2022/03/14 13:12:16;;;;;;;40.42;17.05;;;;;;;;;;5096204;28;20033;-80
2022/03/14 13:14:43;;;;;;;43.15;18.00;;;;;;;;;;5078391;28;20368;-81
2022/03/14 13:17:23;;;;;;;40.13;17.35;;;;;;;;;;5096859;28;20036;-86
2022/03/14 13:23:17;;;;;;;33.33;15.25;;;;;;;;;;5098569;28;20165;-87
2022/03/14 13:25:59;;;;;;;44.33;16.98;;;;;;;;;;5100153;28;20012;-86
2022/03/14 13:28:26;;;;;;;38.65;16.85;;;;;;;;;;5094578;28;20027;-84
2022/03/14 13:30:52;;;;;;;41.90;17.10;;;;;;;;;;5096356;28;20036;-82
2022/03/14 13:33:19;;;;;;;55.58;21.38;;;;;;;;;;5095929;28;20081;-85
2022/03/14 13:35:44;;;;;;;40.35;17.23;;;;;;;;;;5080810;28;20044;-80
2022/03/14 13:38:10;;;;;;;36.13;17.08;;;;;;;;;;5041609;28;20090;-84
2022/03/14 13:40:42;;;;;;;43.60;18.48;;;;;;;;;;5076822;28;20040;-82
2022/03/14 13:43:07;;;;;;;41.65;18.58;;;;;;;;;;5064454;28;20430;-80
2022/03/14 13:45:33;;;;;;;40.78;16.52;;;;;;;;;;5057950;28;20086;-83
2022/03/14 13:47:58;;;;;;;36.78;15.18;;;;;;;;;;5041408;28;20025;-81
2022/03/14 13:50:28;;;;;;;42.20;18.90;;;;;;;;;;5074194;28;20032;-80
2022/03/14 13:52:54;;;;;;;61.97;26.98;;;;;;;;;;5058847;28;20081;-81
2022/03/14 13:55:19;;;;;;;38.88;17.13;;;;;;;;;;5078413;28;20115;-85
2022/03/14 13:57:45;;;;;;;64.95;24.65;;;;;;;;;;5076815;28;20510;-82
2022/03/14 14:00:14;;;;;;;42.67;17.17;;;;;;;;;;5076832;28;20108;-81
2022/03/14 14:02:40;;;;;;;56.00;24.40;;;;;;;;;;5096859;28;20019;-85
2022/03/14 14:05:12;;;;;;;46.38;19.05;;;;;;;;;;5078060;28;20032;-81
2022/03/14 14:07:58;;;;;;;39.53;16.88;;;;;;;;;;5090632;28;20031;-81
2022/03/14 14:10:23;;;;;;;39.47;16.65;;;;;;;;;;5080596;28;20038;-82
2022/03/14 14:13:15;;;;;;;40.10;16.98;;;;;;;;;;5061312;28;20021;-82
2022/03/14 14:15:45;;;;;;;50.63;17.85;;;;;;;;;;5064594;28;20067;-83
2022/03/14 14:18:20;;;;;;;46.93;18.27;;;;;;;;;;5075979;28;20373;-84
2022/03/14 14:20:46;;;;;;;45.33;17.70;;;;;;;;;;5075673;28;20351;-84
2022/03/14 14:23:13;;;;;;;45.28;18.83;;;;;;;;;;5048169;28;20039;-85
2022/03/14 14:25:45;;;;;;;38.45;17.30;;;;;;;;;;5040825;28;20028;-86
2022/03/14 14:28:11;;;;;;;48.65;18.67;;;;;;;;;;5074174;28;20032;-82
2022/03/14 14:30:43;;;;;;;57.80;23.45;;;;;;;;;;5073597;28;20021;-82
2022/03/14 14:33:18;;;;;;;46.15;16.63;;;;;;;;;;5074710;28;20025;-82
2022/03/14 14:35:45;;;;;;;34.58;16.58;;;;;;;;;;5073302;28;20047;-79
2022/03/14 14:38:11;;;;;;;41.60;16.45;;;;;;;;;;5073711;28;20028;-83
2022/03/14 14:40:42;;;;;;;36.08;15.35;;;;;;;;;;5057944;28;20034;-84
2022/03/14 14:43:09;;;;;;;40.55;16.63;;;;;;;;;;5073558;28;20033;-82
2022/03/14 14:45:35;;;;;;;36.00;16.17;;;;;;;;;;5057303;28;20047;-82
2022/03/14 14:48:03;;;;;;;37.03;16.60;;;;;;;;;;5040307;28;20063;-84
2022/03/14 14:50:28;;;;;;;36.33;16.52;;;;;;;;;;5040806;28;20031;-84
2022/03/14 14:52:54;;;;;;;38.67;16.17;;;;;;;;;;5074608;28;20029;-85
2022/03/14 14:55:22;;;;;;;38.45;16.23;;;;;;;;;;5040356;28;20051;-84
2022/03/14 14:57:50;;;;;;;53.40;20.77;;;;;;;;;;5056819;28;20028;-84
2022/03/14 15:00:17;;;;;;;55.28;19.25;;;;;;;;;;5059008;28;20039;-85
2022/03/14 15:02:44;;;;;;;41.67;16.77;;;;;;;;;;5074620;28;20028;-85
2022/03/14 15:05:10;;;;;;;37.80;17.20;;;;;;;;;;5060324;28;20029;-85
2022/03/14 15:07:40;;;;;;;42.22;17.20;;;;;;;;;;5040278;28;20077;-83
2022/03/14 15:10:11;;;;;;;50.55;20.55;;;;;;;;;;5057059;28;20062;-85
2022/03/14 15:12:37;;;;;;;38.65;16.98;;;;;;;;;;5056716;28;20033;-85
2022/03/14 15:15:03;;;;;;;45.58;18.13;;;;;;;;;;5056359;28;20032;-85